• Join FlightAware (Why Join?)
  • Login
  • US Flag 
12:27PM EST


 

Airport Tracker/Info


-or-


 

Live Flight TrackerFlight Track Log ✈ JA-801A ✈ 28-Jun-2013 ✈ RJFM / KMI - RJTT / HND

Flight Track Log - Related Links

Times and Time Zones

All times are in EDT time to prevent confusion due to time zone crossing. See the JA-801A flight status page for this flight to view local times or setup timezone preferences in your user account.

Time Position Orientation Groundspeed Altitude Reporting Facility
EDT Latitude Longitude Course Direction KTS MPH feet Rate Location/Type
02:48AM 31.8720 131.4880 137° Southeast 161 185 2,200  Level FlightAware
02:48AM 31.8640 131.4960 140° Southeast 160 184 2,900 2,400 Climbing FlightAware
02:49AM 31.8490 131.5110 140° Southeast 173 199 3,800 1,740 Climbing FlightAware
02:49AM 31.8290 131.5310 140° Southeast 216 249 4,500 2,040 Climbing FlightAware
02:51AM 31.7660 131.5950 139° Southeast 271 312 7,200 2,280 Climbing FlightAware
02:51AM 31.7470 131.6250 127° Southeast 294 338 8,200 2,220 Climbing FlightAware
02:52AM 31.7580 131.6950 80° East 317 365 9,800 1,860 Climbing FlightAware
02:52AM 31.7850 131.7740 68° East 359 413 11,000 1,380 Climbing FlightAware
02:53AM 31.8110 131.8530 69° East 397 457 11,800 2,040 Climbing FlightAware
02:54AM 31.8400 131.9440 69° East 395 455 13,900 2,880 Climbing FlightAware
02:55AM 31.8660 132.0240 69° East 403 464 15,900 2,700 Climbing FlightAware
02:55AM 31.8920 132.1050 69° East 416 479 17,500 2,520 Climbing FlightAware
02:56AM 31.9200 132.1910 69° East 421 484 19,300 2,640 Climbing FlightAware
02:57AM 31.9580 132.2750 62° Northeast 417 480 21,300 2,580 Climbing FlightAware
02:57AM 31.9950 132.3510 60° Northeast 417 480 22,800 2,100 Climbing FlightAware
02:58AM 32.0400 132.4420 60° Northeast 441 507 24,100 1,800 Climbing FlightAware
02:59AM 32.0860 132.5360 60° Northeast 444 511 25,500 1,320 Climbing FlightAware
02:59AM 32.1280 132.6220 60° Northeast 444 511 26,100 1,860 Climbing FlightAware
03:00AM 32.1690 132.7060 60° Northeast 464 534 28,000 1,320 Climbing FlightAware
03:02AM 32.2830 132.9400 60° Northeast 502 578 29,300 540 Climbing FlightAware
03:02AM 32.3160 133.0080 60° Northeast 502 578 29,300  Level FlightAware
03:03AM 32.3630 133.1060 60° Northeast 502 578 29,300  Level FlightAware
03:04AM 32.3990 133.1780 59° Northeast 502 578 29,300 2,460 Level FlightAware
03:05AM 32.4900 133.3720 61° Northeast 560 644 32,600 2,820 Climbing FlightAware
03:05AM 32.5490 133.4950 60° Northeast 566 651 33,500 1,440 Climbing FlightAware
03:06AM 32.6030 133.6100 61° Northeast 563 648 34,700 1,620 Climbing FlightAware
03:07AM 32.6580 133.7250 60° Northeast 560 644 35,800 1,500 Climbing FlightAware
03:07AM 32.7000 133.8270 64° Northeast 560 644 36,700 1,200 Climbing FlightAware
03:08AM 32.7410 133.9580 70° East 565 650 37,500 1,200 Climbing FlightAware
03:09AM 32.7930 134.1340 71° East 561 646 38,800 900 Climbing FlightAware
03:10AM 32.8220 134.2330 71° East 559 643 39,000 120 Climbing FlightAware
03:10AM 32.8560 134.3500 71° East 560 644 39,000  Level FlightAware
03:11AM 32.8900 134.4690 71° East 563 648 39,000  Level FlightAware
03:12AM 32.9320 134.6130 71° East 563 648 39,000  Level FlightAware
03:12AM 32.9650 134.7290 71° East 566 651 39,000  Level FlightAware
03:13AM 33.0010 134.8540 71° East 567 652 39,000  Level FlightAware
03:14AM 33.0340 134.9730 72° East 566 651 39,000  Level FlightAware
03:15AM 33.0700 135.0980 71° East 567 652 39,000  Level FlightAware
03:15AM 33.1010 135.2180 73° East 565 650 39,000  Level FlightAware
03:16AM 33.1330 135.3480 74° East 563 648 39,000  Level FlightAware
03:17AM 33.1680 135.4870 73° East 561 646 39,000  Level FlightAware
03:17AM 33.1910 135.5800 74° East 562 647 39,000  Level FlightAware
03:18AM 33.2250 135.7180 74° East 562 647 39,000  Level FlightAware
03:19AM 33.2580 135.8510 73° East 563 648 39,000  Level FlightAware
03:20AM 33.2990 136.0180 74° East 563 648 39,000  Level FlightAware
03:20AM 33.3290 136.1410 74° East 562 647 39,000  Level FlightAware
03:21AM 33.3560 136.2490 73° East 562 647 39,000  Level FlightAware
03:22AM 33.3900 136.3890 74° East 563 648 39,000  Level FlightAware
03:22AM 33.4180 136.5090 74° East 561 646 39,000  Level FlightAware
03:23AM 33.4530 136.6520 74° East 559 643 39,000  Level FlightAware
03:24AM 33.4790 136.7640 74° East 549 632 39,000 -180 Level FlightAware
03:24AM 33.5010 136.8570 74° East 543 625 38,800 -720 Descending FlightAware
03:25AM 33.5210 136.9420 74° East 542 624 38,300 -660 Descending FlightAware
03:26AM 33.5520 137.0730 74° East 542 624 38,000 -240 Descending FlightAware
03:26AM 33.5820 137.1820 72° East 540 621 38,000  Level FlightAware
03:27AM 33.6470 137.2890 54° Northeast 518 596 38,000  Level FlightAware
03:28AM 33.7310 137.3730 40° Northeast 521 600 38,000  Level FlightAware
03:28AM 33.7910 137.4340 40° Northeast 521 600 38,000  Level FlightAware
03:29AM 33.8740 137.5310 44° Northeast 527 606 38,000  Level FlightAware
03:30AM 33.9280 137.6300 57° Northeast 531 611 38,000  Level FlightAware
03:31AM 33.9800 137.7420 61° Northeast 537 618 38,000  Level FlightAware
03:31AM 34.0230 137.8680 68° East 544 626 38,000 -480 Level FlightAware
03:32AM 34.0530 137.9620 69° East 540 621 37,400 -2,400 Descending FlightAware
03:33AM 34.0960 138.0980 69° East 551 634 34,900 -2,820 Descending FlightAware
03:33AM 34.1380 138.2290 69° East 542 624 33,200 -2,040 Descending FlightAware
03:34AM 34.1720 138.3360 69° East 528 608 32,000 -1,800 Descending FlightAware
03:35AM 34.2080 138.4510 69° East 516 594 30,800 -1,860 Descending FlightAware
03:36AM 34.2450 138.5700 69° East 509 586 29,400 -1,860 Descending FlightAware
03:36AM 34.2790 138.6760 69° East 500 575 28,200 -1,800 Descending FlightAware
03:37AM 34.3110 138.7790 69° East 489 563 27,000 -1,800 Descending FlightAware
03:38AM 34.3460 138.8940 70° East 481 554 25,700 -1,800 Descending FlightAware
03:38AM 34.3750 138.9870 69° East 478 550 24,600 -1,560 Descending FlightAware
03:39AM 34.4090 139.0860 67° East 463 533 23,700 -1,440 Descending FlightAware
03:40AM 34.4510 139.1850 63° Northeast 454 522 22,600 -1,620 Descending FlightAware
03:40AM 34.4950 139.2890 63° Northeast 438 504 21,400 -1,560 Descending FlightAware
03:41AM 34.5350 139.3860 63° Northeast 428 493 20,300 -1,440 Descending FlightAware
03:42AM 34.5720 139.4710 62° Northeast 409 471 19,400 -1,380 Descending FlightAware
03:42AM 34.6050 139.5510 63° Northeast 401 461 18,500 -1,440 Descending FlightAware
03:43AM 34.6370 139.6250 62° Northeast 395 455 17,500 -1,620 Descending FlightAware
03:44AM 34.6770 139.7210 63° Northeast 382 440 16,200 -1,680 Descending FlightAware
03:47AM 34.9900 139.7418 North  Level Estimated
03:48AM 35.1104 139.7499 North  Level Estimated
03:48AM 35.0040 139.8850 North 288 331 9,800  Level FlightAware
03:48AM 35.0230 139.8920 17° North 287 330 9,400 -1,440 Descending FlightAware
03:49AM 35.0570 139.9060 19° North 285 328 8,800 -1,680 Descending FlightAware
03:49AM 35.0930 139.9190 16° North 289 333 7,900 -1,740 Descending FlightAware
03:49AM 35.1290 139.9330 18° North 286 329 7,300 -1,260 Descending FlightAware
03:50AM 35.1590 139.9450 18° North 275 316 6,800 -1,080 Descending FlightAware
03:51AM 35.2760 139.9690 10° North 273 314 5,100 -840 Descending FlightAware
03:52AM 35.3080 139.9470 331° Northwest 232 267 5,100 -180 Level FlightAware
03:52AM 35.3210 139.9380 331° Northwest 224 258 5,000 -1,260 Descending FlightAware
03:53AM 35.3530 139.9160 331° Northwest 212 244 4,100 -1,320 Descending FlightAware
03:53AM 35.3890 139.8900 330° Northwest 204 235 3,400 -1,020 Descending FlightAware
03:54AM 35.4120 139.8740 330° Northwest 201 231 2,900 -1,080 Descending FlightAware
03:54AM 35.4160 139.8710 329° Northwest 200 230 2,800 -960 Descending FlightAware
03:55AM 35.4500 139.8470 330° Northwest 170 196 2,100 -900 Descending FlightAware
03:56AM 35.4840 139.8230 330° Northwest 153 176 1,300 -900 Descending FlightAware
03:56AM 35.4910 139.8180 330° Northwest 152 175 1,100 -720 Descending FlightAware
03:56AM 35.5080 139.8060 330° Northwest 150 173 800 -780 Descending FlightAware
03:57AM 35.5310 139.7890 329° Northwest 150 173 300 -480 Descending FlightAware
03:57AM 35.5470 139.7780 331° Northwest 150 173 300  Level FlightAware
04:00AM 35.5523 139.7797 15° North  Level Estimated
04:01AM 35.5523 139.7797 122° Southeast  Level Estimated
04:01AM 35.5620 139.7810 122° Southeast 14 16  Level FlightAware
04:01AM 35.5630 139.7840 68° East 14 16  Level FlightAware
04:03AM 35.5630 139.7860 90° East 7 8  Level FlightAware
04:05AM 35.5523 139.7797 206° Southwest  Level Estimated
04:05AM 35.5600 139.7880 206° Southwest 17 20  Level FlightAware
04:06AM 35.5540 139.7900 221° Southwest 10 12  Level FlightAware
04:07AM 35.5523 139.7797 221° Southwest  Level Estimated
04:07AM 35.5540 139.7880 270° West 6 7  Level FlightAware